Time;durP1;ratioP1;P1;durP2;ratioP2;P2;SDS_P1;SDS_P2;PMS_P1;PMS_P2;Temp;Humidity;BMP_temperature;BMP_pressure;BME280_temperature;BME280_humidity;BME280_pressure;Samples;Min_cycle;Max_cycle;Signal;HPM_P1;HPM_P2
2022/07/13 00:01:14;;;;;;;;;;;21.50;77.70;;;;;;5043940;28;19925;-78
2022/07/13 00:03:41;;;;;;;;;;;21.50;77.80;;;;;;5041615;28;19971;-77
2022/07/13 00:06:08;;;;;;;;;;;21.40;77.80;;;;;;5041942;28;20020;-78
2022/07/13 00:08:35;;;;;;;;;;;21.40;78.00;;;;;;5041551;28;20406;-78
2022/07/13 00:11:01;;;;;;;;;;;21.30;77.90;;;;;;5042176;28;19972;-78
2022/07/13 00:13:29;;;;;;;;;;;21.30;78.00;;;;;;5041012;28;20014;-75
2022/07/13 00:15:56;;;;;;;;;;;21.30;78.00;;;;;;5041727;28;19925;-75
2022/07/13 00:18:24;;;;;;;;;;;21.30;78.00;;;;;;5042766;28;19933;-75
2022/07/13 00:20:50;;;;;;;;;;;21.20;78.00;;;;;;5042868;28;20019;-75
2022/07/13 00:23:17;;;;;;;;;;;21.20;78.10;;;;;;5041242;28;19931;-75
2022/07/13 00:25:44;;;;;;;;;;;21.20;78.00;;;;;;5038686;28;19976;-75
2022/07/13 00:28:11;;;;;;;;;;;21.10;77.90;;;;;;5047813;28;19931;-75
2022/07/13 00:30:39;;;;;;;;;;;21.10;77.90;;;;;;5039021;28;19947;-75
2022/07/13 00:33:07;;;;;;;;;;;21.10;77.90;;;;;;5039790;28;19929;-75
2022/07/13 00:35:34;;;;;;;;;;;21.00;77.80;;;;;;5044956;28;20016;-75
2022/07/13 00:38:01;;;;;;;;;;;21.00;77.90;;;;;;5058024;28;19935;-75
2022/07/13 00:40:28;;;;;;;;;;;21.00;77.90;;;;;;5054039;28;19925;-75
2022/07/13 00:42:55;;;;;;;;;;;20.90;77.80;;;;;;5040446;28;19929;-75
2022/07/13 00:45:21;;;;;;;;;;;20.90;77.90;;;;;;5040511;28;19937;-75
2022/07/13 00:47:50;;;;;;;;;;;20.90;77.80;;;;;;5052788;28;19933;-75
2022/07/13 00:50:17;;;;;;;;;;;20.80;77.60;;;;;;5057838;28;20353;-75
2022/07/13 00:52:44;;;;;;;;;;;20.80;77.80;;;;;;5041112;28;19929;-75
2022/07/13 00:55:12;;;;;;;;;;;20.70;77.80;;;;;;5036071;28;19931;-75
2022/07/13 00:57:39;;;;;;;;;;;20.70;77.90;;;;;;5039232;28;19925;-75
2022/07/13 01:00:07;;;;;;;;;;;20.70;78.00;;;;;;5037577;28;19983;-75
2022/07/13 01:02:36;;;;;;;;;;;20.60;77.90;;;;;;5038719;28;20347;-75
2022/07/13 01:05:04;;;;;;;;;;;20.60;77.90;;;;;;5044331;28;20689;-75
2022/07/13 01:07:32;;;;;;;;;;;20.60;77.90;;;;;;5039367;28;19928;-75
2022/07/13 01:09:59;;;;;;;;;;;20.60;77.90;;;;;;5039175;28;19979;-75
2022/07/13 01:12:28;;;;;;;;;;;20.50;77.80;;;;;;5036727;28;19929;-75
2022/07/13 01:14:55;;;;;;;;;;;20.50;77.90;;;;;;5040296;28;20418;-75
2022/07/13 01:17:22;;;;;;;;;;;20.50;78.10;;;;;;5038354;28;19932;-75
2022/07/13 01:19:50;;;;;;;;;;;20.40;77.90;;;;;;5039615;28;20005;-75
2022/07/13 01:22:21;;;;;;;;;;;20.40;77.70;;;;;;5044128;28;20322;-75
2022/07/13 01:24:50;;;;;;;;;;;20.40;77.90;;;;;;5052777;28;20654;-75
2022/07/13 01:27:17;;;;;;;;;;;20.20;77.00;;;;;;5040392;28;19932;-76
2022/07/13 01:29:44;;;;;;;;;;;20.30;77.90;;;;;;5040149;28;20844;-75
2022/07/13 01:32:11;;;;;;;;;;;20.30;78.00;;;;;;5038938;28;19933;-76
2022/07/13 01:34:37;;;;;;;;;;;20.20;78.00;;;;;;5043230;28;19931;-75
2022/07/13 01:37:04;;;;;;;;;;;20.20;78.10;;;;;;5056743;28;19932;-75
2022/07/13 01:39:31;;;;;;;;;;;20.20;78.10;;;;;;5042799;28;19933;-75
2022/07/13 01:42:00;;;;;;;;;;;20.10;78.00;;;;;;5059714;28;21921;-75
2022/07/13 01:44:27;;;;;;;;;;;20.10;78.10;;;;;;5053783;28;20284;-75
2022/07/13 01:46:54;;;;;;;;;;;20.10;77.80;;;;;;5052861;28;20379;-75
2022/07/13 01:49:21;;;;;;;;;;;20.00;77.50;;;;;;5043936;28;19925;-76
2022/07/13 01:51:48;;;;;;;;;;;20.00;77.20;;;;;;5058015;28;20472;-75
2022/07/13 01:54:15;;;;;;;;;;;19.90;76.90;;;;;;5056619;28;20399;-75
2022/07/13 01:56:42;;;;;;;;;;;19.90;77.50;;;;;;5042647;28;19933;-75
2022/07/13 01:59:10;;;;;;;;;;;19.90;77.60;;;;;;5053030;28;19931;-74
2022/07/13 02:01:37;;;;;;;;;;;19.90;77.50;;;;;;5060862;28;20485;-75
2022/07/13 02:04:04;;;;;;;;;;;19.90;77.60;;;;;;5058378;28;20384;-75
2022/07/13 02:06:32;;;;;;;;;;;19.80;77.60;;;;;;5062202;28;19947;-75
2022/07/13 02:08:58;;;;;;;;;;;19.80;78.00;;;;;;5040472;28;19928;-75
2022/07/13 02:11:25;;;;;;;;;;;19.80;77.60;;;;;;5040566;28;19932;-75
2022/07/13 02:13:52;;;;;;;;;;;19.70;77.40;;;;;;5055347;28;19929;-75
2022/07/13 02:16:21;;;;;;;;;;;19.70;77.30;;;;;;5054036;28;20300;-75
2022/07/13 02:18:48;;;;;;;;;;;19.60;76.60;;;;;;5055452;28;19925;-75
2022/07/13 02:21:15;;;;;;;;;;;19.60;77.30;;;;;;5047669;28;19935;-75
2022/07/13 02:23:42;;;;;;;;;;;19.60;77.30;;;;;;5046195;28;20684;-75
2022/07/13 02:26:09;;;;;;;;;;;;;;;;;;5042918;28;19933;-75
2022/07/13 02:28:39;;;;;;;;;;;19.50;76.90;;;;;;5038678;28;19970;-75
2022/07/13 02:31:06;;;;;;;;;;;19.50;78.20;;;;;;5040633;28;19940;-75
2022/07/13 02:33:34;;;;;;;;;;;19.40;77.80;;;;;;5058159;28;19926;-75
2022/07/13 02:36:01;;;;;;;;;;;19.40;77.80;;;;;;5054301;28;19936;-75
2022/07/13 02:38:28;;;;;;;;;;;19.40;77.10;;;;;;5044429;28;19924;-75
2022/07/13 02:40:55;;;;;;;;;;;19.40;77.60;;;;;;5044334;28;19936;-75
2022/07/13 02:43:24;;;;;;;;;;;19.30;77.70;;;;;;5042256;28;19925;-75
2022/07/13 02:45:51;;;;;;;;;;;19.30;77.70;;;;;;5040457;28;20326;-75
2022/07/13 02:48:20;;;;;;;;;;;19.30;77.80;;;;;;5042313;28;19986;-74
2022/07/13 02:50:49;;;;;;;;;;;19.30;77.60;;;;;;5045229;28;20288;-74
2022/07/13 02:53:15;;;;;;;;;;;19.20;77.70;;;;;;5045954;28;20623;-75
2022/07/13 02:55:43;;;;;;;;;;;19.20;77.80;;;;;;5040607;28;19974;-75
2022/07/13 02:58:10;;;;;;;;;;;19.20;77.80;;;;;;5044513;28;19928;-75
2022/07/13 03:00:37;;;;;;;;;;;19.10;77.70;;;;;;5055028;28;19975;-75
2022/07/13 03:03:04;;;;;;;;;;;19.10;77.80;;;;;;5061483;28;19947;-75
2022/07/13 03:05:31;;;;;;;;;;;19.10;77.80;;;;;;5041506;28;20317;-75
2022/07/13 03:07:59;;;;;;;;;;;19.10;78.10;;;;;;5045681;28;19932;-75
2022/07/13 03:10:26;;;;;;;;;;;19.00;78.10;;;;;;5043613;28;19974;-75
2022/07/13 03:12:56;;;;;;;;;;;19.00;78.10;;;;;;5039181;28;19943;-75
2022/07/13 03:15:23;;;;;;;;;;;19.00;78.20;;;;;;5044856;28;20373;-74
2022/07/13 03:17:50;;;;;;;;;;;19.00;77.90;;;;;;5053154;28;19925;-75
2022/07/13 03:20:19;;;;;;;;;;;18.90;77.90;;;;;;5048808;28;19944;-75
2022/07/13 03:22:47;;;;;;;;;;;18.90;78.10;;;;;;5040078;28;19933;-75
2022/07/13 03:25:16;;;;;;;;;;;18.90;78.30;;;;;;5040998;28;19924;-75
2022/07/13 03:27:43;;;;;;;;;;;18.90;78.20;;;;;;5039884;28;19933;-75
2022/07/13 03:30:11;;;;;;;;;;;18.80;78.30;;;;;;5041496;28;20019;-74
2022/07/13 03:32:39;;;;;;;;;;;18.80;78.40;;;;;;5037102;28;20019;-74
2022/07/13 03:35:06;;;;;;;;;;;18.80;78.40;;;;;;5055218;28;20602;-75
2022/07/13 03:37:33;;;;;;;;;;;18.80;78.40;;;;;;5040130;28;20023;-74
2022/07/13 03:40:00;;;;;;;;;;;18.70;78.30;;;;;;5055585;28;19936;-75
2022/07/13 03:42:29;;;;;;;;;;;18.70;78.30;;;;;;5040466;28;19935;-75
2022/07/13 03:44:55;;;;;;;;;;;18.70;78.20;;;;;;5046793;28;20371;-74
2022/07/13 03:47:23;;;;;;;;;;;18.70;77.90;;;;;;5043411;28;19937;-75
2022/07/13 03:49:50;;;;;;;;;;;18.60;78.10;;;;;;5040981;28;19986;-75
2022/07/13 03:52:17;;;;;;;;;;;18.60;77.80;;;;;;5044126;28;20319;-74
2022/07/13 03:54:45;;;;;;;;;;;18.60;77.80;;;;;;5039402;28;19968;-75
2022/07/13 03:57:12;;;;;;;;;;;18.50;78.00;;;;;;5057552;28;20043;-75
2022/07/13 03:59:40;;;;;;;;;;;18.50;78.00;;;;;;5061360;28;19947;-75
2022/07/13 04:02:07;;;;;;;;;;;18.50;77.90;;;;;;5060083;28;19979;-74
2022/07/13 04:04:35;;;;;;;;;;;18.50;77.90;;;;;;5063906;28;19925;-74
2022/07/13 04:07:02;;;;;;;;;;;18.40;77.90;;;;;;5044144;28;20024;-75
2022/07/13 04:09:31;;;;;;;;;;;18.40;78.10;;;;;;5046491;28;19928;-74
2022/07/13 04:11:58;;;;;;;;;;;18.40;77.90;;;;;;5044084;28;20383;-75
2022/07/13 04:14:25;;;;;;;;;;;18.30;77.90;;;;;;5065233;28;20007;-74
2022/07/13 04:16:53;;;;;;;;;;;18.30;78.00;;;;;;5045750;28;19948;-75
2022/07/13 04:19:21;;;;;;;;;;;18.30;78.10;;;;;;5048037;28;19925;-74
2022/07/13 04:21:48;;;;;;;;;;;18.30;78.30;;;;;;5063186;28;20088;-75
2022/07/13 04:24:16;;;;;;;;;;;18.30;78.30;;;;;;5043256;28;19935;-74
2022/07/13 04:26:43;;;;;;;;;;;18.30;78.20;;;;;;5040074;28;19925;-75
2022/07/13 04:29:11;;;;;;;;;;;18.20;78.00;;;;;;5042005;28;20397;-75
2022/07/13 04:31:40;;;;;;;;;;;18.20;78.30;;;;;;5059590;28;19943;-75
2022/07/13 04:34:08;;;;;;;;;;;18.20;78.40;;;;;;5043081;28;19939;-74
2022/07/13 04:36:38;;;;;;;;;;;18.20;78.30;;;;;;5047187;28;20411;-75
2022/07/13 04:39:05;;;;;;;;;;;18.10;78.10;;;;;;5043375;28;22000;-74
2022/07/13 04:41:32;;;;;;;;;;;18.10;78.10;;;;;;5041722;28;20425;-75
2022/07/13 04:43:59;;;;;;;;;;;18.10;78.10;;;;;;5037859;28;20024;-75
2022/07/13 04:46:29;;;;;;;;;;;18.10;78.20;;;;;;5038971;28;19925;-75
2022/07/13 04:48:59;;;;;;;;;;;18.00;78.00;;;;;;5036650;28;19929;-76
2022/07/13 04:51:29;;;;;;;;;;;18.00;78.30;;;;;;5059488;28;19936;-75
2022/07/13 04:53:57;;;;;;;;;;;18.00;78.20;;;;;;5057643;28;19936;-75
2022/07/13 04:56:24;;;;;;;;;;;17.90;77.60;;;;;;5059026;28;19929;-77
2022/07/13 04:58:51;;;;;;;;;;;17.80;78.30;;;;;;5041487;28;20104;-77
2022/07/13 05:01:17;;;;;;;;;;;17.70;78.70;;;;;;5039502;28;19925;-75
2022/07/13 05:03:44;;;;;;;;;;;17.60;79.00;;;;;;5044581;28;19978;-74
2022/07/13 05:06:13;;;;;;;;;;;17.60;79.60;;;;;;5038467;28;20442;-75
2022/07/13 05:08:41;;;;;;;;;;;17.60;80.00;;;;;;5041132;28;19924;-74
2022/07/13 05:11:10;;;;;;;;;;;17.60;80.10;;;;;;5037288;28;19925;-76
2022/07/13 05:13:40;;;;;;;;;;;17.60;80.50;;;;;;5041093;28;20282;-76
2022/07/13 05:16:07;;;;;;;;;;;17.60;80.80;;;;;;5040614;28;19929;-75
2022/07/13 05:18:34;;;;;;;;;;;17.60;80.80;;;;;;5036334;28;19925;-75
2022/07/13 05:21:07;;;;;;;;;;;17.60;80.90;;;;;;5059537;28;19928;-75
2022/07/13 05:23:34;;;;;;;;;;;17.60;81.20;;;;;;5043527;28;19936;-76
2022/07/13 05:26:03;;;;;;;;;;;17.60;81.30;;;;;;5042351;28;19975;-75
2022/07/13 05:28:30;;;;;;;;;;;17.60;81.50;;;;;;5038716;28;19978;-74
2022/07/13 05:30:58;;;;;;;;;;;17.70;81.60;;;;;;5047208;28;19925;-75
2022/07/13 05:33:26;;;;;;;;;;;17.70;81.60;;;;;;5056894;28;20325;-75
2022/07/13 05:35:55;;;;;;;;;;;17.70;81.80;;;;;;5044115;28;19929;-74
2022/07/13 05:38:22;;;;;;;;;;;17.80;81.90;;;;;;5049269;28;19929;-75
2022/07/13 05:40:50;;;;;;;;;;;17.80;82.00;;;;;;5048508;28;19931;-74
2022/07/13 05:43:19;;;;;;;;;;;17.80;82.80;;;;;;5046682;28;19983;-75
2022/07/13 05:45:46;;;;;;;;;;;17.90;82.40;;;;;;5044083;28;19960;-75
2022/07/13 05:48:13;;;;;;;;;;;17.90;82.60;;;;;;5039188;28;20007;-75
2022/07/13 05:50:40;;;;;;;;;;;18.00;82.80;;;;;;5043595;28;19976;-74
2022/07/13 05:53:07;;;;;;;;;;;18.00;83.00;;;;;;5042465;28;20356;-75
2022/07/13 05:55:36;;;;;;;;;;;18.00;83.00;;;;;;5056218;28;19932;-75
2022/07/13 05:58:03;;;;;;;;;;;18.00;83.00;;;;;;5045042;28;19932;-74
2022/07/13 06:00:31;;;;;;;;;;;18.00;82.70;;;;;;5044533;28;19929;-74
2022/07/13 06:02:58;;;;;;;;;;;18.00;82.50;;;;;;5039209;28;19928;-78
2022/07/13 06:05:25;;;;;;;;;;;18.00;82.60;;;;;;5045169;28;20310;-74
2022/07/13 06:07:55;;;;;;;;;;;18.00;82.80;;;;;;5043895;28;19925;-75
2022/07/13 06:10:22;;;;;;;;;;;18.10;83.10;;;;;;5035608;28;20778;-75
2022/07/13 06:12:49;;;;;;;;;;;18.10;83.30;;;;;;5044759;28;19955;-74
2022/07/13 06:15:16;;;;;;;;;;;18.10;83.40;;;;;;5045048;28;20397;-74
2022/07/13 06:17:44;;;;;;;;;;;18.10;83.50;;;;;;5059425;28;19932;-74
2022/07/13 06:20:14;;;;;;;;;;;18.10;83.60;;;;;;5049174;28;19925;-74
2022/07/13 06:22:41;;;;;;;;;;;18.20;83.90;;;;;;5054449;28;19925;-74
2022/07/13 06:25:08;;;;;;;;;;;18.20;84.00;;;;;;5057566;28;19925;-74
2022/07/13 06:27:35;;;;;;;;;;;18.20;84.80;;;;;;5042311;28;20385;-74
2022/07/13 06:30:02;;;;;;;;;;;18.30;85.00;;;;;;5043696;28;19979;-74
2022/07/13 06:32:29;;;;;;;;;;;18.30;84.80;;;;;;5054590;28;19967;-74
2022/07/13 06:34:57;;;;;;;;;;;18.30;84.80;;;;;;5050003;28;19929;-74
2022/07/13 06:37:24;;;;;;;;;;;18.30;84.80;;;;;;5048609;28;19925;-74
2022/07/13 06:39:51;;;;;;;;;;;18.30;84.70;;;;;;5065854;28;20441;-74
2022/07/13 06:42:18;;;;;;;;;;;18.30;84.60;;;;;;5048626;28;20022;-74
2022/07/13 06:44:48;;;;;;;;;;;18.40;84.70;;;;;;5041620;28;19929;-74
2022/07/13 06:47:15;;;;;;;;;;;18.40;84.80;;;;;;5053882;28;20014;-74
2022/07/13 06:49:42;;;;;;;;;;;18.40;84.80;;;;;;5051046;28;19925;-74
2022/07/13 06:52:10;;;;;;;;;;;18.40;84.80;;;;;;5047259;28;19928;-74
2022/07/13 06:54:37;;;;;;;;;;;18.40;84.70;;;;;;5049758;28;20303;-74
2022/07/13 06:57:04;;;;;;;;;;;18.50;84.70;;;;;;5048006;28;19940;-74
2022/07/13 06:59:31;;;;;;;;;;;18.50;84.80;;;;;;5048537;28;19929;-74
2022/07/13 07:01:58;;;;;;;;;;;18.50;84.80;;;;;;5047165;28;19933;-74
2022/07/13 07:04:25;;;;;;;;;;;18.50;84.90;;;;;;5054389;28;19954;-74
2022/07/13 07:06:51;;;;;;;;;;;18.50;84.80;;;;;;5049778;28;20051;-74
2022/07/13 07:09:20;;;;;;;;;;;18.60;85.00;;;;;;5046456;22;19925;-74
2022/07/13 07:11:46;;;;;;;;;;;18.60;85.00;;;;;;5043989;28;20357;-74
2022/07/13 07:14:13;;;;;;;;;;;18.60;84.90;;;;;;5049539;28;19978;-74
2022/07/13 07:16:42;;;;;;;;;;;18.70;85.00;;;;;;5049298;28;20385;-74
2022/07/13 07:19:09;;;;;;;;;;;18.70;84.90;;;;;;5050290;28;19929;-75
2022/07/13 07:21:38;;;;;;;;;;;18.70;84.80;;;;;;5044294;28;19956;-74
2022/07/13 07:24:05;;;;;;;;;;;18.70;84.70;;;;;;5047172;28;19925;-74
2022/07/13 07:26:33;;;;;;;;;;;18.70;84.70;;;;;;5042912;28;19982;-75
2022/07/13 07:29:00;;;;;;;;;;;18.80;84.90;;;;;;5050607;28;19935;-74
2022/07/13 07:31:27;;;;;;;;;;;18.80;84.90;;;;;;5051027;28;20343;-75
2022/07/13 07:33:54;;;;;;;;;;;18.90;85.00;;;;;;5073799;28;19987;-74
2022/07/13 07:36:21;;;;;;;;;;;18.80;84.80;;;;;;5049840;28;20221;-73
2022/07/13 07:38:48;;;;;;;;;;;18.90;84.90;;;;;;5051689;28;19950;-74
2022/07/13 07:41:15;;;;;;;;;;;18.90;85.30;;;;;;5043708;28;19924;-74
2022/07/13 07:43:43;;;;;;;;;;;19.00;84.90;;;;;;5045824;28;19929;-74
2022/07/13 07:46:10;;;;;;;;;;;19.00;84.90;;;;;;5047771;28;20280;-74
2022/07/13 07:48:37;;;;;;;;;;;19.00;84.90;;;;;;5048240;28;20017;-74
2022/07/13 07:51:04;;;;;;;;;;;19.00;84.90;;;;;;5044258;28;19975;-74
2022/07/13 07:53:31;;;;;;;;;;;19.10;85.00;;;;;;5046178;28;19924;-74
2022/07/13 07:55:58;;;;;;;;;;;19.10;85.00;;;;;;5043771;28;20383;-75
2022/07/13 07:58:24;;;;;;;;;;;19.10;84.90;;;;;;5054391;28;19972;-74
2022/07/13 08:00:53;;;;;;;;;;;19.10;84.80;;;;;;5050445;28;19979;-74
2022/07/13 08:03:19;;;;;;;;;;;19.10;84.80;;;;;;5049065;28;19971;-74
2022/07/13 08:05:48;;;;;;;;;;;19.20;84.90;;;;;;5045612;28;19932;-74
2022/07/13 08:08:15;;;;;;;;;;;19.20;84.90;;;;;;5042904;28;20358;-75
2022/07/13 08:10:42;;;;;;;;;;;19.20;84.80;;;;;;5046679;28;20016;-74
2022/07/13 08:13:08;;;;;;;;;;;19.20;84.70;;;;;;5039556;28;20453;-74
2022/07/13 08:15:35;;;;;;;;;;;19.20;84.70;;;;;;5046931;28;19925;-74
2022/07/13 08:18:04;;;;;;;;;;;19.30;84.80;;;;;;5044717;28;19933;-74
2022/07/13 08:20:31;;;;;;;;;;;19.30;84.70;;;;;;5026380;28;19933;-75
2022/07/13 08:22:57;;;;;;;;;;;19.30;84.50;;;;;;5037307;28;19925;-74
2022/07/13 08:25:24;;;;;;;;;;;19.30;84.30;;;;;;5045327;28;19929;-74
2022/07/13 08:27:51;;;;;;;;;;;19.40;84.40;;;;;;5045449;28;19928;-74
2022/07/13 08:30:19;;;;;;;;;;;19.40;84.30;;;;;;5047480;28;19924;-74
2022/07/13 08:32:46;;;;;;;;;;;19.40;84.40;;;;;;5042904;28;19933;-74
2022/07/13 08:40:43;;;;;;;;;;;19.50;84.10;;;;;;5045789;28;19925;-74
2022/07/13 08:43:10;;;;;;;;;;;19.50;84.00;;;;;;5045577;28;19925;-74
2022/07/13 08:45:37;;;;;;;;;;;19.50;84.00;;;;;;5047309;28;19925;-75
2022/07/13 08:48:07;;;;;;;;;;;19.50;84.00;;;;;;5053069;28;19925;-75
2022/07/13 08:50:35;;;;;;;;;;;19.50;84.00;;;;;;5063313;28;19929;-75
2022/07/13 08:53:02;;;;;;;;;;;19.50;83.90;;;;;;5045544;28;19931;-75
2022/07/13 08:55:29;;;;;;;;;;;19.50;83.90;;;;;;5046767;28;19929;-74
2022/07/13 08:57:56;;;;;;;;;;;19.50;84.00;;;;;;5051611;28;19979;-75
2022/07/13 09:00:23;;;;;;;;;;;19.60;84.10;;;;;;5047124;28;19990;-74
2022/07/13 09:02:50;;;;;;;;;;;19.60;84.10;;;;;;5037032;28;19928;-74
2022/07/13 09:08:43;;;;;;;;;;;19.60;83.80;;;;;;5042079;28;20013;-74
2022/07/13 09:11:10;;;;;;;;;;;19.70;83.40;;;;;;5040135;28;19933;-74
2022/07/13 09:13:38;;;;;;;;;;;19.70;83.40;;;;;;5043105;28;19929;-74
2022/07/13 09:16:19;;;;;;;;;;;19.70;83.30;;;;;;5043247;28;19955;-74
2022/07/13 09:18:46;;;;;;;;;;;19.70;83.40;;;;;;5041405;28;20015;-74
2022/07/13 09:21:13;;;;;;;;;;;19.70;83.60;;;;;;5041096;28;19928;-75
2022/07/13 09:23:40;;;;;;;;;;;19.80;83.80;;;;;;5044442;28;20012;-74
2022/07/13 09:26:09;;;;;;;;;;;19.80;83.70;;;;;;5046451;28;19979;-74
2022/07/13 09:28:43;;;;;;;;;;;19.80;83.60;;;;;;5042817;28;19925;-74
2022/07/13 09:31:10;;;;;;;;;;;19.80;83.50;;;;;;5054056;28;20394;-74
2022/07/13 09:33:38;;;;;;;;;;;19.90;83.60;;;;;;5046374;28;19925;-74
2022/07/13 09:36:12;;;;;;;;;;;19.90;83.60;;;;;;5054760;28;19929;-74
2022/07/13 09:38:39;;;;;;;;;;;19.90;83.60;;;;;;5040622;28;19933;-75
2022/07/13 09:41:17;;;;;;;;;;;19.90;83.20;;;;;;5038997;28;20008;-74
2022/07/13 09:46:48;;;;;;;;;;;20.00;82.60;;;;;;5041411;28;19925;-74
2022/07/13 09:49:16;;;;;;;;;;;20.10;82.60;;;;;;5042438;28;20335;-74
2022/07/13 09:51:44;;;;;;;;;;;20.10;82.80;;;;;;5040238;28;19933;-74
2022/07/13 09:54:12;;;;;;;;;;;20.10;83.10;;;;;;5043476;28;20003;-74
2022/07/13 09:56:43;;;;;;;;;;;20.10;82.80;;;;;;5042732;28;20323;-74
2022/07/13 09:59:11;;;;;;;;;;;20.10;82.50;;;;;;5047428;28;19987;-74
2022/07/13 10:01:38;;;;;;;;;;;20.20;82.60;;;;;;5063024;28;20345;-75
2022/07/13 10:04:05;;;;;;;;;;;20.20;82.30;;;;;;5042364;28;19974;-74
2022/07/13 10:06:32;;;;;;;;;;;20.20;82.10;;;;;;5050150;28;19929;-74
2022/07/13 10:08:59;;;;;;;;;;;20.20;82.20;;;;;;5062752;28;20024;-74
2022/07/13 10:11:26;;;;;;;;;;;20.20;82.00;;;;;;5041629;28;20022;-74
2022/07/13 10:13:57;;;;;;;;;;;20.30;82.30;;;;;;5050678;28;19976;-73
2022/07/13 10:16:24;;;;;;;;;;;20.30;82.30;;;;;;5035296;28;20033;-75
2022/07/13 10:18:51;;;;;;;;;;;;;;;;;;5027313;28;19948;-74
2022/07/13 10:21:20;;;;;;;;;;;20.90;76.30;;;;;;5042062;28;19956;-74
2022/07/13 10:23:47;;;;;;;;;;;20.90;77.70;;;;;;5042389;28;19968;-75
2022/07/13 10:26:20;;;;;;;;;;;20.90;78.40;;;;;;5034617;28;19936;-74
2022/07/13 10:29:05;;;;;;;;;;;20.90;79.10;;;;;;5041638;28;19925;-74
2022/07/13 10:31:33;;;;;;;;;;;20.80;79.60;;;;;;5035407;28;19925;-74
2022/07/13 10:34:00;;;;;;;;;;;20.80;80.10;;;;;;5035476;28;19928;-75
2022/07/13 10:36:46;;;;;;;;;;;20.80;80.20;;;;;;5040803;28;20055;-76
2022/07/13 10:39:13;;;;;;;;;;;20.80;80.30;;;;;;5043581;28;20389;-76
2022/07/13 10:41:55;;;;;;;;;;;20.80;80.50;;;;;;5039928;28;19937;-76
2022/07/13 10:44:36;;;;;;;;;;;20.90;80.70;;;;;;5038791;28;19929;-76
2022/07/13 10:47:04;;;;;;;;;;;20.90;80.90;;;;;;5045613;28;19932;-77
2022/07/13 10:49:35;;;;;;;;;;;20.90;81.00;;;;;;5042693;28;20380;-79
2022/07/13 10:52:20;;;;;;;;;;;20.90;80.50;;;;;;5037985;28;19963;-76
2022/07/13 10:55:02;;;;;;;;;;;21.00;80.60;;;;;;5043756;28;19968;-75
2022/07/13 10:57:30;;;;;;;;;;;21.00;80.40;;;;;;5039286;28;20406;-77
2022/07/13 11:00:02;;;;;;;;;;;21.00;80.60;;;;;;5041298;28;19943;-76
2022/07/13 11:02:47;;;;;;;;;;;21.00;80.80;;;;;;5041398;28;19929;-77
2022/07/13 11:05:14;;;;;;;;;;;21.00;81.30;;;;;;5041519;28;20356;-75
2022/07/13 11:07:43;;;;;;;;;;;21.00;81.30;;;;;;5038288;28;20031;-76
2022/07/13 11:10:20;;;;;;;;;;;21.10;81.60;;;;;;5037686;28;19936;-76
2022/07/13 11:13:01;;;;;;;;;;;21.10;81.70;;;;;;5039085;28;20433;-77
2022/07/13 11:15:46;;;;;;;;;;;21.10;81.60;;;;;;5045448;28;20449;-77
2022/07/13 11:18:27;;;;;;;;;;;21.10;81.90;;;;;;5039497;28;20361;-77
2022/07/13 11:20:58;;;;;;;;;;;21.20;81.90;;;;;;5039133;28;19983;-76
2022/07/13 11:26:13;;;;;;;;;;;21.20;81.50;;;;;;5033408;28;19932;-78
2022/07/13 11:28:45;;;;;;;;;;;21.20;81.20;;;;;;5043228;28;20461;-76
2022/07/13 11:31:14;;;;;;;;;;;21.30;80.10;;;;;;5042598;28;19955;-75
2022/07/13 11:33:48;;;;;;;;;;;21.30;79.50;;;;;;5039652;28;20000;-77
2022/07/13 11:36:19;;;;;;;;;;;21.30;80.10;;;;;;5036721;28;20390;-77
2022/07/13 11:38:46;;;;;;;;;;;21.40;80.30;;;;;;5041631;28;20346;-77
2022/07/13 11:41:18;;;;;;;;;;;21.40;80.30;;;;;;5034600;28;19933;-76
2022/07/13 11:43:48;;;;;;;;;;;21.50;80.10;;;;;;5027096;28;20780;-76
2022/07/13 11:46:21;;;;;;;;;;;21.50;80.30;;;;;;5035754;28;19929;-77
2022/07/13 11:48:48;;;;;;;;;;;21.50;80.40;;;;;;5037085;28;20112;-76
2022/07/13 11:51:15;;;;;;;;;;;21.50;80.20;;;;;;5033645;28;20276;-77
2022/07/13 11:53:42;;;;;;;;;;;21.60;80.20;;;;;;5034779;28;19936;-77
2022/07/13 11:56:09;;;;;;;;;;;21.60;80.30;;;;;;5040897;28;19929;-76
2022/07/13 11:58:39;;;;;;;;;;;21.70;80.60;;;;;;5038759;28;20008;-76
2022/07/13 12:01:12;;;;;;;;;;;21.60;80.70;;;;;;5036648;28;20023;-77
2022/07/13 12:03:43;;;;;;;;;;;21.70;80.80;;;;;;5033510;28;20483;-77
2022/07/13 12:06:11;;;;;;;;;;;21.80;80.90;;;;;;5040512;28;20260;-77
2022/07/13 12:08:39;;;;;;;;;;;21.80;80.80;;;;;;5036677;28;19925;-77
2022/07/13 12:11:09;;;;;;;;;;;21.80;80.90;;;;;;5037017;28;23310;-76
2022/07/13 12:13:36;;;;;;;;;;;21.90;80.60;;;;;;5038493;28;19925;-77
2022/07/13 12:16:04;;;;;;;;;;;21.90;80.50;;;;;;5036856;28;19933;-77
2022/07/13 12:18:31;;;;;;;;;;;21.90;80.50;;;;;;5033964;28;19972;-75
2022/07/13 12:20:59;;;;;;;;;;;22.00;80.50;;;;;;5028743;28;19929;-76
2022/07/13 12:23:31;;;;;;;;;;;22.00;80.70;;;;;;5038934;28;19960;-76
2022/07/13 12:26:05;;;;;;;;;;;22.00;80.70;;;;;;5039992;28;19933;-75
2022/07/13 12:28:33;;;;;;;;;;;22.10;80.80;;;;;;5038336;28;19924;-76
2022/07/13 12:31:00;;;;;;;;;;;22.20;80.90;;;;;;5036385;28;20050;-76
2022/07/13 12:33:38;;;;;;;;;;;22.20;81.00;;;;;;5036459;28;20015;-76
2022/07/13 12:36:07;;;;;;;;;;;22.30;81.00;;;;;;5134769;22;19932;-75
2022/07/13 12:38:34;;;;;;;;;;;22.30;80.80;;;;;;5061617;28;19928;-73
2022/07/13 12:41:03;;;;;;;;;;;22.30;80.70;;;;;;5061381;28;20390;-76
2022/07/13 12:43:31;;;;;;;;;;;22.40;80.80;;;;;;5059609;28;19970;-75
2022/07/13 12:45:59;;;;;;;;;;;22.40;80.70;;;;;;5063085;28;19924;-77
2022/07/13 12:48:26;;;;;;;;;;;22.50;80.50;;;;;;5059636;28;20019;-74
2022/07/13 12:50:58;;;;;;;;;;;22.50;80.90;;;;;;5058958;28;19933;-75
2022/07/13 12:53:26;;;;;;;;;;;22.60;80.90;;;;;;5055436;28;19932;-74
2022/07/13 12:55:54;;;;;;;;;;;22.60;79.50;;;;;;5066272;28;20356;-75
2022/07/13 12:58:39;;;;;;;;;;;22.70;80.30;;;;;;5065800;28;19925;-75
2022/07/13 13:01:05;;;;;;;;;;;22.80;80.80;;;;;;5058255;28;20310;-76
2022/07/13 13:03:32;;;;;;;;;;;22.80;80.70;;;;;;5056738;28;20398;-76
2022/07/13 13:06:00;;;;;;;;;;;;;;;;;;5071980;28;20555;-76
2022/07/13 13:08:28;;;;;;;;;;;22.90;78.50;;;;;;5060520;28;19986;-73
2022/07/13 13:10:55;;;;;;;;;;;23.00;79.30;;;;;;5060042;28;20284;-76
2022/07/13 13:13:22;;;;;;;;;;;23.00;79.90;;;;;;5060359;28;19964;-76
2022/07/13 13:15:51;;;;;;;;;;;23.10;80.20;;;;;;5061786;28;19964;-76
2022/07/13 13:18:17;;;;;;;;;;;23.20;80.20;;;;;;5063354;28;20310;-76
2022/07/13 13:20:44;;;;;;;;;;;23.20;80.20;;;;;;5061331;28;19924;-76
2022/07/13 13:23:11;;;;;;;;;;;23.30;80.30;;;;;;5055804;28;19929;-76
2022/07/13 13:25:40;;;;;;;;;;;23.40;79.50;;;;;;5054471;28;19956;-76
2022/07/13 13:28:07;;;;;;;;;;;23.60;71.00;;;;;;5062913;28;20007;-75
2022/07/13 13:30:45;;;;;;;;;;;23.80;67.40;;;;;;5059879;28;20423;-76
2022/07/13 13:33:12;;;;;;;;;;;24.20;64.60;;;;;;5071836;28;19924;-76
2022/07/13 13:35:39;;;;;;;;;;;24.40;61.20;;;;;;5060588;28;19935;-74
2022/07/13 13:38:07;;;;;;;;;;;24.50;62.50;;;;;;5064969;28;20430;-75
2022/07/13 13:40:34;;;;;;;;;;;24.60;65.50;;;;;;5055160;28;19932;-73
2022/07/13 13:43:02;;;;;;;;;;;24.70;61.50;;;;;;5058385;28;19932;-75
2022/07/13 13:45:29;;;;;;;;;;;24.80;59.70;;;;;;5057755;28;19957;-74
2022/07/13 13:47:56;;;;;;;;;;;24.80;60.80;;;;;;5061839;28;20460;-74
2022/07/13 13:50:23;;;;;;;;;;;24.80;63.90;;;;;;5072001;28;19933;-75
2022/07/13 13:52:50;;;;;;;;;;;24.80;66.70;;;;;;5065049;28;20387;-74
2022/07/13 13:55:16;;;;;;;;;;;24.80;69.30;;;;;;5061685;28;20023;-74
2022/07/13 13:57:44;;;;;;;;;;;24.80;70.90;;;;;;5075425;28;20348;-75
2022/07/13 14:00:13;;;;;;;;;;;24.80;71.90;;;;;;5068840;28;20367;-74
2022/07/13 14:02:42;;;;;;;;;;;24.80;72.80;;;;;;5073438;28;19925;-75
2022/07/13 14:05:09;;;;;;;;;;;24.90;73.60;;;;;;5074166;28;19924;-74
2022/07/13 14:07:36;;;;;;;;;;;24.90;74.00;;;;;;5065302;28;20480;-75
2022/07/13 14:10:05;;;;;;;;;;;24.90;74.60;;;;;;5073253;28;20059;-75
2022/07/13 14:12:32;;;;;;;;;;;25.00;74.70;;;;;;5076136;28;19932;-75
2022/07/13 14:14:58;;;;;;;;;;;25.00;74.80;;;;;;5073395;28;20418;-74
2022/07/13 14:17:27;;;;;;;;;;;25.00;75.00;;;;;;5069893;28;20123;-75
2022/07/13 14:19:53;;;;;;;;;;;25.10;75.60;;;;;;5072923;28;19924;-74
2022/07/13 14:22:22;;;;;;;;;;;25.20;76.00;;;;;;5073270;28;19925;-74
2022/07/13 14:24:49;;;;;;;;;;;25.20;75.90;;;;;;5070245;28;20377;-75
2022/07/13 14:27:16;;;;;;;;;;;25.40;79.00;;;;;;5067256;28;19924;-75
2022/07/13 14:29:43;;;;;;;;;;;25.30;75.10;;;;;;5069477;28;19963;-74
2022/07/13 14:32:16;;;;;;;;;;;25.40;74.00;;;;;;5072883;28;19971;-75
2022/07/13 14:34:45;;;;;;;;;;;25.40;74.40;;;;;;5067265;28;20390;-74
2022/07/13 14:37:12;;;;;;;;;;;25.40;74.40;;;;;;5069782;28;20435;-75
2022/07/13 14:39:39;;;;;;;;;;;25.50;75.10;;;;;;5073107;28;20402;-75